createdAt,value
2022-09-04T00:00:13.134Z,18.50
2022-09-04T00:05:22.062Z,18.40
2022-09-04T00:08:31.717Z,18.40
2022-09-04T00:12:08.357Z,18.30
2022-09-04T00:15:12.925Z,18.30
2022-09-04T00:20:28.809Z,18.20
2022-09-04T00:24:04.675Z,18.00
2022-09-04T00:27:47.005Z,18.10
2022-09-04T00:30:20.794Z,18.10
2022-09-04T00:33:28.174Z,18.10
2022-09-04T00:36:02.516Z,17.90
2022-09-04T00:39:02.216Z,17.80
2022-09-04T00:43:01.466Z,17.70
2022-09-04T00:47:33.345Z,17.70
2022-09-04T00:53:24.131Z,17.60
2022-09-04T00:58:35.252Z,17.40
2022-09-04T01:01:03.780Z,17.20
2022-09-04T01:04:05.206Z,17.20
2022-09-04T01:08:41.176Z,17.30
2022-09-04T01:13:02.502Z,17.40
2022-09-04T01:16:00.816Z,17.20
2022-09-04T01:18:57.799Z,17.00
2022-09-04T01:25:34.645Z,17.00
2022-09-04T01:28:41.233Z,16.80
2022-09-04T01:32:09.422Z,16.80
2022-09-04T01:35:10.511Z,16.80
2022-09-04T01:39:00.768Z,16.90
2022-09-04T01:41:44.418Z,16.90
2022-09-04T01:44:12.551Z,16.80
2022-09-04T01:47:24.933Z,16.80
2022-09-04T01:50:06.077Z,16.60
2022-09-04T01:53:01.806Z,16.40
2022-09-04T01:55:50.860Z,16.40
2022-09-04T01:58:46.509Z,16.30
2022-09-04T02:01:57.070Z,16.20
2022-09-04T02:05:06.338Z,16.20
2022-09-04T02:08:05.555Z,16.20
2022-09-04T02:11:27.776Z,16.10
2022-09-04T02:15:57.791Z,16.10
2022-09-04T02:20:34.849Z,16.10
2022-09-04T02:26:16.926Z,16.10
2022-09-04T02:29:21.936Z,16.00
2022-09-04T02:32:25.052Z,15.90
2022-09-04T02:35:17.263Z,15.80
2022-09-04T02:40:49.312Z,15.70
2022-09-04T02:46:53.319Z,15.70
2022-09-04T02:54:14.551Z,15.60
2022-09-04T02:57:08.568Z,15.50
2022-09-04T03:00:21.328Z,15.40
2022-09-04T03:06:10.589Z,15.70
2022-09-04T03:08:56.404Z,15.80
2022-09-04T03:11:48.160Z,15.70
2022-09-04T03:14:35.257Z,15.70
2022-09-04T03:17:48.822Z,15.70
2022-09-04T03:20:25.801Z,15.80
2022-09-04T03:23:36.118Z,15.80
2022-09-04T03:26:36.577Z,15.80
2022-09-04T03:29:24.465Z,15.60
2022-09-04T03:33:43.228Z,15.50
2022-09-04T03:37:02.904Z,15.40
2022-09-04T03:40:18.957Z,15.40
2022-09-04T03:46:28.550Z,15.60
2022-09-04T03:54:02.023Z,15.50
2022-09-04T04:00:35.531Z,15.30
2022-09-04T04:05:07.455Z,15.00
2022-09-04T04:09:37.032Z,15.20
2022-09-04T04:13:23.656Z,15.40
2022-09-04T04:21:56.244Z,15.30
2022-09-04T04:25:52.209Z,15.00
2022-09-04T04:29:49.207Z,14.90
2022-09-04T04:35:35.119Z,14.90
2022-09-04T04:42:04.989Z,15.00
2022-09-04T04:45:26.619Z,14.80
2022-09-04T04:50:26.724Z,14.90
2022-09-04T04:53:16.169Z,14.90
2022-09-04T04:55:57.340Z,14.70
2022-09-04T04:58:54.159Z,14.70
2022-09-04T05:03:07.433Z,14.80
2022-09-04T05:10:36.895Z,14.90
2022-09-04T05:16:08.378Z,14.90
2022-09-04T05:19:07.809Z,15.00
2022-09-04T05:23:21.607Z,15.00
2022-09-04T05:32:52.845Z,15.00
2022-09-04T05:36:09.030Z,15.00
2022-09-04T05:41:38.419Z,15.20
2022-09-04T05:47:46.464Z,15.40
2022-09-04T05:51:30.064Z,15.70
2022-09-04T05:57:45.872Z,16.20
2022-09-04T06:00:17.560Z,16.70
2022-09-04T06:03:35.446Z,17.20
2022-09-04T06:09:01.504Z,17.30
2022-09-04T06:14:24.126Z,17.80
2022-09-04T06:17:36.463Z,18.00
2022-09-04T06:21:50.591Z,18.20
2022-09-04T06:26:19.953Z,18.50
2022-09-04T06:30:47.985Z,18.60
2022-09-04T06:34:13.605Z,19.10
2022-09-04T06:39:07.996Z,19.40
2022-09-04T06:42:50.455Z,19.40
2022-09-04T06:47:21.880Z,19.50
2022-09-04T06:53:04.101Z,19.80
2022-09-04T06:56:02.622Z,19.90
2022-09-04T07:00:11.161Z,20.20
2022-09-04T07:03:58.332Z,20.60
2022-09-04T07:06:51.333Z,20.70
2022-09-04T07:10:17.233Z,20.70
2022-09-04T07:14:19.362Z,21.00
2022-09-04T07:19:45.392Z,21.20
2022-09-04T07:24:02.284Z,21.50
2022-09-04T07:27:15.043Z,21.60
2022-09-04T07:30:05.984Z,21.90
2022-09-04T07:32:55.594Z,22.00
2022-09-04T07:35:48.574Z,22.10
2022-09-04T07:41:23.640Z,22.20
2022-09-04T07:44:48.220Z,22.40
2022-09-04T07:47:42.317Z,22.60
2022-09-04T07:51:16.999Z,22.80
2022-09-04T07:55:36.105Z,22.80
2022-09-04T08:00:07.165Z,22.80
2022-09-04T08:07:33.124Z,23.00
2022-09-04T08:11:02.908Z,23.30
2022-09-04T08:16:09.108Z,23.70
2022-09-04T08:22:47.039Z,23.80
2022-09-04T08:28:52.594Z,24.00
2022-09-04T08:35:55.665Z,24.20
2022-09-04T08:39:08.937Z,24.20
2022-09-04T08:42:58.066Z,24.30
2022-09-04T08:49:01.702Z,24.50
2022-09-04T08:55:46.266Z,24.50
2022-09-04T08:59:17.066Z,24.60
2022-09-04T09:03:15.086Z,24.60
2022-09-04T09:08:35.225Z,24.60
2022-09-04T09:12:40.298Z,24.80
2022-09-04T09:18:02.923Z,25.00
2022-09-04T09:22:36.940Z,24.80
2022-09-04T09:25:20.114Z,24.90
2022-09-04T09:30:07.257Z,25.00
2022-09-04T09:34:29.156Z,25.10
2022-09-04T09:40:15.386Z,25.10
2022-09-04T09:44:57.797Z,25.30
2022-09-04T09:49:56.409Z,25.50
2022-09-04T09:54:52.202Z,25.70
2022-09-04T09:58:14.625Z,25.10
2022-09-04T10:04:43.868Z,24.90
2022-09-04T10:07:55.488Z,24.90
2022-09-04T10:11:46.817Z,25.10
2022-09-04T10:17:43.060Z,25.10
2022-09-04T10:20:57.648Z,25.50
2022-09-04T10:24:04.761Z,25.70
2022-09-04T10:31:26.332Z,25.70
2022-09-04T10:35:10.404Z,26.00
2022-09-04T10:40:25.056Z,26.60
2022-09-04T10:46:25.498Z,26.60
2022-09-04T10:53:56.357Z,27.20
2022-09-04T10:59:30.769Z,27.10
2022-09-04T11:04:26.413Z,26.50
2022-09-04T11:09:39.290Z,26.10
2022-09-04T11:15:41.325Z,26.00
2022-09-04T11:19:52.857Z,26.20
2022-09-04T11:24:18.147Z,27.20
2022-09-04T11:28:32.683Z,26.90
2022-09-04T11:33:54.054Z,27.00
2022-09-04T11:38:24.841Z,27.00
2022-09-04T11:46:59.947Z,27.30
2022-09-04T11:51:59.522Z,26.80
2022-09-04T11:57:46.337Z,27.30
2022-09-04T12:00:18.089Z,27.70
2022-09-04T12:04:40.462Z,27.70
2022-09-04T12:08:09.022Z,27.70
2022-09-04T12:15:34.928Z,27.60
2022-09-04T12:18:53.750Z,26.70
2022-09-04T12:21:57.857Z,25.90
2022-09-04T12:27:14.808Z,25.70
2022-09-04T12:31:15.520Z,25.30
2022-09-04T12:40:17.966Z,23.60
2022-09-04T12:43:33.484Z,21.00
2022-09-04T12:47:21.651Z,20.80
2022-09-04T12:50:27.463Z,20.90
2022-09-04T12:55:04.095Z,20.40
2022-09-04T13:00:10.036Z,20.60
2022-09-04T13:05:29.466Z,21.10
2022-09-04T13:11:09.668Z,22.00
2022-09-04T13:17:00.957Z,22.50
2022-09-04T13:22:27.397Z,22.80
2022-09-04T13:25:41.489Z,23.20
2022-09-04T13:29:35.436Z,23.30
2022-09-04T13:32:59.862Z,23.60
2022-09-04T13:36:10.461Z,23.60
2022-09-04T13:41:36.293Z,23.50
2022-09-04T13:45:22.738Z,23.50
2022-09-04T13:48:16.241Z,23.40
2022-09-04T13:51:13.722Z,23.40
2022-09-04T13:56:16.346Z,23.60
2022-09-04T13:58:50.600Z,23.60
2022-09-04T14:01:25.012Z,23.30
2022-09-04T14:04:07.861Z,23.20
2022-09-04T14:06:36.308Z,23.20
2022-09-04T14:09:06.046Z,23.20
2022-09-04T14:13:26.238Z,23.20
2022-09-04T14:16:09.210Z,23.10
2022-09-04T14:20:28.370Z,23.00
2022-09-04T14:24:55.749Z,23.10
2022-09-04T14:31:10.699Z,23.10
2022-09-04T14:37:12.716Z,23.20
2022-09-04T14:40:16.438Z,23.40
2022-09-04T14:44:02.989Z,23.60
2022-09-04T14:47:58.240Z,23.50
2022-09-04T14:50:33.474Z,23.60
2022-09-04T14:53:07.814Z,23.50
2022-09-04T14:55:41.723Z,23.40
2022-09-04T14:58:24.378Z,23.40
2022-09-04T15:01:16.511Z,23.40
2022-09-04T15:05:56.115Z,23.40
2022-09-04T15:08:40.183Z,23.40
2022-09-04T15:11:31.167Z,23.30
2022-09-04T15:14:32.106Z,23.20
2022-09-04T15:17:13.964Z,23.20
2022-09-04T15:19:59.225Z,23.20
2022-09-04T15:22:41.970Z,23.00
2022-09-04T15:25:56.808Z,22.80
2022-09-04T15:28:52.393Z,22.60
2022-09-04T15:31:38.549Z,22.50
2022-09-04T15:34:18.516Z,22.50
2022-09-04T15:36:45.187Z,22.50
2022-09-04T15:39:35.525Z,22.40
2022-09-04T15:42:02.164Z,22.30
2022-09-04T15:44:40.658Z,22.40
2022-09-04T15:47:55.089Z,22.40
2022-09-04T15:50:29.703Z,22.30
2022-09-04T15:53:40.394Z,22.20
2022-09-04T15:56:34.225Z,22.20
2022-09-04T15:59:24.180Z,22.20
2022-09-04T16:02:22.842Z,22.10
2022-09-04T16:08:09.815Z,22.10
2022-09-04T16:11:05.841Z,21.80
2022-09-04T16:14:16.085Z,21.70
2022-09-04T16:16:50.409Z,21.60
2022-09-04T16:19:45.034Z,21.40
2022-09-04T16:23:03.142Z,21.40
2022-09-04T16:25:51.598Z,21.20
2022-09-04T16:28:47.415Z,21.10
2022-09-04T16:31:31.571Z,21.00
2022-09-04T16:34:07.363Z,21.10
2022-09-04T16:36:54.837Z,21.00
2022-09-04T16:40:20.645Z,20.80
2022-09-04T16:43:15.741Z,20.70
2022-09-04T16:46:10.070Z,20.60
2022-09-04T16:49:19.774Z,20.50
2022-09-04T16:52:22.029Z,20.60
2022-09-04T16:55:07.855Z,20.50
2022-09-04T17:00:06.727Z,20.30
2022-09-04T17:03:01.516Z,20.30
2022-09-04T17:05:42.355Z,20.10
2022-09-04T17:08:20.497Z,20.00
2022-09-04T17:11:55.780Z,20.10
2022-09-04T17:14:39.657Z,20.00
2022-09-04T17:17:30.221Z,19.90
2022-09-04T17:20:32.276Z,19.80
2022-09-04T17:29:09.209Z,19.80
2022-09-04T17:30:09.646Z,19.50
2022-09-04T17:36:32.834Z,19.40
2022-09-04T17:40:46.388Z,19.40
2022-09-04T17:44:26.551Z,19.40
2022-09-04T17:47:40.826Z,19.30
2022-09-04T17:50:21.831Z,19.20
2022-09-04T17:53:08.136Z,19.20
2022-09-04T17:55:47.469Z,19.10
2022-09-04T17:59:19.946Z,19.10
2022-09-04T18:04:46.415Z,19.10
2022-09-04T18:08:08.264Z,19.10
2022-09-04T18:12:00.429Z,19.00
2022-09-04T18:15:18.387Z,19.00
2022-09-04T18:21:34.752Z,18.90
2022-09-04T18:24:11.833Z,18.70
2022-09-04T18:27:14.548Z,18.60
2022-09-04T18:36:04.539Z,18.50
2022-09-04T18:38:01.083Z,18.70
2022-09-04T18:46:48.381Z,18.50
2022-09-04T18:50:31.685Z,18.30
2022-09-04T18:52:08.312Z,18.20
2022-09-04T18:54:56.462Z,18.10
2022-09-04T19:00:54.914Z,18.10
2022-09-04T19:03:44.478Z,18.10
2022-09-04T19:06:31.678Z,18.00
2022-09-04T19:09:15.871Z,17.80
2022-09-04T19:11:50.201Z,17.80
2022-09-04T19:14:33.502Z,17.70
2022-09-04T19:17:39.635Z,17.70
2022-09-04T19:20:17.393Z,17.80
2022-09-04T19:22:53.236Z,17.90
2022-09-04T19:25:33.981Z,17.90
2022-09-04T19:28:22.919Z,17.70
2022-09-04T19:30:59.592Z,17.60
2022-09-04T19:34:02.555Z,17.50
2022-09-04T19:45:55.212Z,17.50
2022-09-04T19:46:13.996Z,17.40
2022-09-04T19:53:31.420Z,17.20
2022-09-04T19:58:52.576Z,17.00
2022-09-04T20:01:39.445Z,16.90
2022-09-04T20:04:58.883Z,16.80
2022-09-04T20:09:21.750Z,16.70
2022-09-04T20:12:26.780Z,16.50
2022-09-04T20:15:41.787Z,16.70
2022-09-04T20:18:39.592Z,16.90
2022-09-04T20:21:25.165Z,16.90
2022-09-04T20:24:20.062Z,16.90
2022-09-04T20:27:45.882Z,16.90
2022-09-04T20:30:20.447Z,16.90
2022-09-04T20:33:39.027Z,16.90
2022-09-04T20:36:11.777Z,16.90
2022-09-04T20:38:55.176Z,17.00
2022-09-04T20:41:57.674Z,16.90
2022-09-04T20:45:59.148Z,16.90
2022-09-04T20:52:49.131Z,16.90
2022-09-04T21:03:24.605Z,16.90
2022-09-04T21:04:52.466Z,16.80
2022-09-04T21:07:44.446Z,16.80
2022-09-04T21:10:35.299Z,16.70
2022-09-04T21:14:45.398Z,16.70
2022-09-04T21:22:00.089Z,16.60
2022-09-04T21:25:41.327Z,16.70
2022-09-04T21:31:50.148Z,16.70
2022-09-04T21:34:56.754Z,16.30
2022-09-04T21:41:02.176Z,16.00
2022-09-04T21:49:36.592Z,16.00
2022-09-04T21:59:28.243Z,16.10
2022-09-04T22:02:49.700Z,16.40
2022-09-04T22:06:29.273Z,16.30
2022-09-04T22:13:40.217Z,16.10
2022-09-04T22:17:05.595Z,16.10
2022-09-04T22:24:44.857Z,16.00
2022-09-04T22:29:04.139Z,16.00
2022-09-04T22:32:23.600Z,15.80
2022-09-04T22:37:52.757Z,15.80
2022-09-04T22:43:11.604Z,15.80
2022-09-04T22:48:03.661Z,15.70
2022-09-04T22:51:16.162Z,15.70
2022-09-04T22:56:24.275Z,15.70
2022-09-04T23:01:02.222Z,15.50
2022-09-04T23:12:23.445Z,15.50
2022-09-04T23:14:08.875Z,15.20
2022-09-04T23:19:12.710Z,15.10
2022-09-04T23:31:19.762Z,15.30
2022-09-04T23:37:41.240Z,15.20
2022-09-04T23:40:50.869Z,15.00
2022-09-04T23:44:37.913Z,14.80
2022-09-04T23:50:33.624Z,14.60
2022-09-04T23:53:30.722Z,14.50
2022-09-04T23:56:47.061Z,14.60
